METAR Formatted Surface Weather Observation
Issued by NWS

Home | Current Version | Previous Version | Text Only | Print | Product List | Glossary On
Versions: 1 2 3 4 5 6 7 8 9 10 11 12 13 14 15 16 17 18 19 20 21 22 23 24 25 26
000
SAUS45 KPSR 310659
MTRFHU
METAR KFHU 310656Z AUTO 24011KT 10SM CLR 27/06 A3007 RMK AO2 SLP105
T02670061 403440183 $



USA.gov is the U.S. government's official web portal to all federal, state and local government web resources and services.